createdAt,value
2019-03-19T00:02:00.857Z,2.95
2019-03-19T00:04:27.372Z,3.05
2019-03-19T00:06:53.816Z,3.02
2019-03-19T00:09:20.424Z,3.77
2019-03-19T00:11:47.237Z,2.80
2019-03-19T00:14:14.190Z,2.98
2019-03-19T00:16:40.632Z,3.00
2019-03-19T00:19:07.004Z,2.87
2019-03-19T00:21:33.458Z,3.47
2019-03-19T00:23:59.925Z,3.83
2019-03-19T00:26:26.472Z,3.50
2019-03-19T00:28:53.302Z,4.67
2019-03-19T00:31:19.756Z,3.90
2019-03-19T00:33:46.326Z,3.22
2019-03-19T00:36:13.188Z,3.62
2019-03-19T00:38:39.647Z,4.05
2019-03-19T00:41:06.000Z,3.87
2019-03-19T00:43:32.457Z,3.52
2019-03-19T00:45:59.354Z,2.95
2019-03-19T00:48:25.811Z,3.10
2019-03-19T00:50:52.285Z,4.15
2019-03-19T00:53:18.837Z,3.47
2019-03-19T00:55:45.316Z,2.50
2019-03-19T00:58:11.759Z,3.60
2019-03-19T01:00:38.515Z,2.95
2019-03-19T01:03:05.174Z,3.47
2019-03-19T01:05:51.489Z,4.17
2019-03-19T01:08:17.944Z,3.50
2019-03-19T01:10:44.526Z,3.30
2019-03-19T01:13:11.194Z,3.02
2019-03-19T01:15:38.061Z,4.67
2019-03-19T01:18:04.833Z,3.05
2019-03-19T01:20:31.648Z,4.58
2019-03-19T01:22:58.230Z,3.98
2019-03-19T01:25:24.908Z,4.30
2019-03-19T01:27:51.385Z,4.15
2019-03-19T01:30:17.932Z,4.92
2019-03-19T01:32:44.411Z,4.25
2019-03-19T01:35:10.970Z,4.00
2019-03-19T01:37:37.536Z,3.55
2019-03-19T01:40:06.599Z,4.55
2019-03-19T01:42:33.051Z,4.90
2019-03-19T01:44:59.532Z,3.87
2019-03-19T01:47:25.997Z,5.05
2019-03-19T01:49:52.738Z,4.05
2019-03-19T01:52:20.152Z,4.33
2019-03-19T01:54:46.813Z,3.35
2019-03-19T01:57:13.577Z,4.17
2019-03-19T01:59:40.521Z,4.17
2019-03-19T02:02:06.884Z,3.75
2019-03-19T02:04:33.442Z,3.30
2019-03-19T02:07:00.230Z,3.90
2019-03-19T02:09:27.176Z,3.62
2019-03-19T02:11:53.918Z,3.42
2019-03-19T02:14:20.517Z,4.53
2019-03-19T02:16:46.975Z,4.35
2019-03-19T02:19:13.720Z,4.95
2019-03-19T02:21:40.221Z,4.53
2019-03-19T02:24:06.898Z,3.95
2019-03-19T02:26:33.645Z,3.75
2019-03-19T02:29:00.130Z,4.10
2019-03-19T02:31:27.127Z,4.22
2019-03-19T02:33:53.646Z,5.33
2019-03-19T02:36:20.178Z,4.50
2019-03-19T02:38:46.934Z,4.03
2019-03-19T02:41:13.514Z,4.28
2019-03-19T02:43:39.969Z,4.10
2019-03-19T02:46:06.653Z,4.25
2019-03-19T02:48:33.125Z,4.03
2019-03-19T02:50:59.784Z,4.12
2019-03-19T02:53:29.386Z,4.83
2019-03-19T02:55:54.568Z,3.60
2019-03-19T02:58:21.124Z,3.90
2019-03-19T03:00:47.516Z,5.55
2019-03-19T03:03:13.992Z,4.58
2019-03-19T03:05:40.468Z,5.03
2019-03-19T03:08:07.042Z,4.08
2019-03-19T03:10:33.510Z,4.45
2019-03-19T03:13:00.294Z,5.25
2019-03-19T03:15:27.031Z,4.75
2019-03-19T03:17:53.680Z,5.22
2019-03-19T03:20:20.165Z,4.55
2019-03-19T03:22:46.718Z,4.03
2019-03-19T03:25:15.593Z,4.60
2019-03-19T03:27:42.142Z,3.90
2019-03-19T03:30:12.431Z,4.75
2019-03-19T03:32:39.081Z,5.72
2019-03-19T03:35:07.447Z,5.67
2019-03-19T03:37:34.106Z,4.47
2019-03-19T03:40:00.887Z,5.40
2019-03-19T03:42:27.343Z,4.83
2019-03-19T03:44:53.821Z,4.95
2019-03-19T03:47:20.382Z,4.40
2019-03-19T03:49:46.869Z,4.55
2019-03-19T03:52:13.309Z,4.33
2019-03-19T03:54:40.408Z,4.53
2019-03-19T03:57:07.331Z,4.67
2019-03-19T03:59:33.882Z,4.15
2019-03-19T04:02:00.632Z,4.45
2019-03-19T04:04:27.309Z,5.05
2019-03-19T04:06:53.884Z,4.30
2019-03-19T04:09:20.237Z,4.10
2019-03-19T04:11:46.717Z,5.90
2019-03-19T04:14:13.313Z,4.85
2019-03-19T04:16:39.763Z,4.80
2019-03-19T04:19:06.228Z,4.20
2019-03-19T04:21:32.697Z,5.20
2019-03-19T04:23:59.278Z,4.78
2019-03-19T04:26:25.866Z,3.87
2019-03-19T04:28:52.429Z,4.87
2019-03-19T04:31:18.886Z,7.08
2019-03-19T04:33:45.477Z,5.90
2019-03-19T04:36:11.923Z,5.22
2019-03-19T04:38:38.619Z,6.15
2019-03-19T04:41:05.195Z,5.08
2019-03-19T04:43:31.589Z,4.78
2019-03-19T04:45:58.191Z,5.37
2019-03-19T04:48:24.655Z,5.33
2019-03-19T04:50:51.022Z,5.97
2019-03-19T04:53:17.503Z,4.72
2019-03-19T04:55:44.216Z,4.90
2019-03-19T04:58:10.840Z,5.65
2019-03-19T05:00:37.284Z,4.95
2019-03-19T05:03:04.232Z,6.05
2019-03-19T05:05:30.812Z,5.05
2019-03-19T05:07:57.267Z,4.85
2019-03-19T05:10:23.739Z,5.35
2019-03-19T05:12:50.200Z,4.35
2019-03-19T05:15:16.832Z,5.22
2019-03-19T05:17:43.322Z,5.78
2019-03-19T05:20:15.410Z,4.87
2019-03-19T05:22:41.968Z,4.47
2019-03-19T05:25:09.508Z,5.42
2019-03-19T05:27:37.606Z,5.00
2019-03-19T05:30:16.114Z,6.72
2019-03-19T05:32:42.668Z,5.20
2019-03-19T05:35:09.356Z,6.35
2019-03-19T05:37:36.000Z,6.28
2019-03-19T05:40:05.576Z,5.33
2019-03-19T05:42:32.236Z,5.17
2019-03-19T05:44:58.824Z,5.60
2019-03-19T05:47:25.407Z,4.90
2019-03-19T05:49:51.863Z,6.00
2019-03-19T05:52:18.707Z,6.28
2019-03-19T05:54:45.152Z,5.67
2019-03-19T05:57:11.994Z,5.50
2019-03-19T05:59:40.076Z,6.60
2019-03-19T06:02:06.808Z,5.35
2019-03-19T06:04:33.359Z,5.25
2019-03-19T06:06:59.873Z,5.47
2019-03-19T06:09:26.427Z,6.15
2019-03-19T06:11:52.896Z,6.83
2019-03-19T06:14:19.360Z,5.10
2019-03-19T06:16:45.851Z,6.67
2019-03-19T06:19:12.395Z,6.22
2019-03-19T06:21:39.056Z,6.62
2019-03-19T06:24:05.599Z,6.12
2019-03-19T06:26:32.167Z,8.35
2019-03-19T06:28:58.896Z,10.90
2019-03-19T06:31:25.331Z,8.93
2019-03-19T06:33:51.689Z,8.73
2019-03-19T06:36:18.081Z,8.43
2019-03-19T06:38:44.669Z,8.05
2019-03-19T06:41:11.122Z,7.30
2019-03-19T06:43:37.709Z,6.65
2019-03-19T06:46:04.368Z,8.05
2019-03-19T06:48:30.938Z,7.87
2019-03-19T06:50:57.500Z,7.72
2019-03-19T06:53:23.970Z,6.83
2019-03-19T06:55:50.523Z,6.53
2019-03-19T06:58:17.080Z,6.97
2019-03-19T07:00:43.557Z,5.90
2019-03-19T07:03:10.003Z,6.80
2019-03-19T07:05:36.479Z,6.40
2019-03-19T07:08:03.229Z,6.50
2019-03-19T07:10:29.812Z,8.60
2019-03-19T07:12:56.258Z,7.40
2019-03-19T07:15:23.389Z,7.15
2019-03-19T07:17:49.936Z,7.12
2019-03-19T07:20:19.022Z,8.58
2019-03-19T07:22:45.582Z,8.90
2019-03-19T07:25:12.358Z,7.97
2019-03-19T07:27:39.237Z,8.58
2019-03-19T07:30:09.548Z,8.45
2019-03-19T07:32:36.089Z,7.97
2019-03-19T07:35:02.760Z,8.63
2019-03-19T07:37:29.316Z,6.90
2019-03-19T07:39:55.897Z,7.62
2019-03-19T07:42:22.363Z,7.72
2019-03-19T07:44:48.924Z,8.03
2019-03-19T07:47:15.410Z,9.03
2019-03-19T07:49:42.078Z,8.60
2019-03-19T07:52:08.723Z,9.70
2019-03-19T07:54:35.175Z,10.70
2019-03-19T07:57:01.755Z,8.90
2019-03-19T07:59:28.507Z,8.43
2019-03-19T08:01:55.001Z,8.88
2019-03-19T08:04:21.545Z,9.00
2019-03-19T08:06:48.320Z,9.25
2019-03-19T08:09:14.863Z,8.93
2019-03-19T08:11:41.347Z,7.67
2019-03-19T08:14:07.779Z,8.85
2019-03-19T08:16:34.365Z,7.08
2019-03-19T08:19:01.115Z,8.05
2019-03-19T08:21:28.052Z,9.13
2019-03-19T08:23:54.714Z,8.23
2019-03-19T08:26:21.180Z,7.62
2019-03-19T08:28:55.112Z,6.60
2019-03-19T08:31:15.948Z,7.87
2019-03-19T08:33:42.923Z,7.30
2019-03-19T08:36:09.832Z,7.30
2019-03-19T08:38:36.384Z,8.20
2019-03-19T08:41:03.313Z,9.07
2019-03-19T08:43:29.879Z,8.70
2019-03-19T08:45:56.450Z,6.60
2019-03-19T08:48:23.023Z,6.30
2019-03-19T08:50:49.581Z,7.00
2019-03-19T08:53:16.072Z,7.00
2019-03-19T08:55:42.519Z,6.90
2019-03-19T08:58:09.261Z,6.13
2019-03-19T09:00:35.704Z,5.93
2019-03-19T09:03:02.386Z,5.90
2019-03-19T09:05:28.845Z,6.10
2019-03-19T09:07:55.328Z,5.53
2019-03-19T09:10:21.975Z,5.07
2019-03-19T09:12:48.983Z,4.50
2019-03-19T09:15:24.772Z,5.40
2019-03-19T09:17:51.241Z,4.67
2019-03-19T09:20:17.995Z,5.43
2019-03-19T09:22:44.472Z,5.40
2019-03-19T09:25:11.232Z,4.47
2019-03-19T09:27:38.430Z,3.60
2019-03-19T09:30:21.436Z,4.27
2019-03-19T09:32:48.013Z,4.27
2019-03-19T09:35:14.665Z,3.70
2019-03-19T09:37:46.286Z,3.40
2019-03-19T09:40:12.945Z,3.17
2019-03-19T09:42:39.983Z,4.00
2019-03-19T09:45:08.285Z,3.60
2019-03-19T09:47:35.113Z,4.10
2019-03-19T09:50:03.292Z,4.20
2019-03-19T09:52:29.790Z,3.30
2019-03-19T09:54:56.376Z,3.67
2019-03-19T09:57:22.932Z,3.90
2019-03-19T09:59:49.388Z,3.37
2019-03-19T10:02:15.848Z,3.37
2019-03-19T10:04:42.323Z,3.60
2019-03-19T10:07:08.776Z,3.70
2019-03-19T10:09:35.565Z,3.57
2019-03-19T10:12:02.220Z,2.77
2019-03-19T10:14:28.779Z,3.73
2019-03-19T10:16:55.331Z,2.90
2019-03-19T10:19:21.916Z,2.47
2019-03-19T10:21:48.379Z,2.97
2019-03-19T10:24:15.292Z,2.87
2019-03-19T10:26:41.749Z,2.60
2019-03-19T10:29:08.213Z,3.20
2019-03-19T10:31:34.982Z,2.50
2019-03-19T10:34:01.959Z,2.30
2019-03-19T10:36:28.436Z,2.90
2019-03-19T10:38:54.926Z,3.17
2019-03-19T10:41:21.692Z,2.40
2019-03-19T10:43:48.412Z,2.10
2019-03-19T10:46:15.041Z,2.80
2019-03-19T10:48:41.546Z,2.90
2019-03-19T10:51:08.016Z,2.70
2019-03-19T10:53:34.676Z,2.47
2019-03-19T10:56:01.793Z,2.40
2019-03-19T10:58:28.235Z,2.97
2019-03-19T11:00:54.916Z,1.97
2019-03-19T11:03:21.452Z,3.10
2019-03-19T11:05:48.028Z,2.63
2019-03-19T11:08:14.498Z,2.40
2019-03-19T11:10:41.164Z,1.73
2019-03-19T11:13:07.618Z,2.20
2019-03-19T11:15:34.189Z,2.10
2019-03-19T11:18:00.649Z,2.13
2019-03-19T11:20:27.235Z,3.00
2019-03-19T11:22:53.694Z,2.40
2019-03-19T11:25:25.776Z,2.10
2019-03-19T11:27:52.429Z,2.43
2019-03-19T11:30:21.873Z,2.53
2019-03-19T11:32:48.469Z,2.07
2019-03-19T11:35:15.731Z,2.07
2019-03-19T11:37:42.446Z,2.67
2019-03-19T11:40:14.187Z,2.47
2019-03-19T11:42:40.724Z,2.10
2019-03-19T11:45:10.093Z,2.30
2019-03-19T11:47:36.672Z,2.13
2019-03-19T11:50:06.932Z,2.00
2019-03-19T11:52:33.399Z,2.40
2019-03-19T11:54:59.879Z,2.43
2019-03-19T11:57:26.459Z,2.43
2019-03-19T11:59:52.895Z,2.33
2019-03-19T12:02:25.990Z,2.37
2019-03-19T12:04:47.636Z,2.10
2019-03-19T12:07:14.200Z,2.67
2019-03-19T12:09:40.650Z,2.13
2019-03-19T12:12:07.448Z,2.60
2019-03-19T12:14:33.884Z,1.87
2019-03-19T12:17:00.929Z,3.10
2019-03-19T12:19:27.388Z,2.70
2019-03-19T12:21:53.944Z,1.70
2019-03-19T12:24:20.429Z,1.70
2019-03-19T12:26:46.979Z,1.60
2019-03-19T12:29:13.576Z,1.23
2019-03-19T12:31:40.140Z,1.50
2019-03-19T12:34:06.993Z,1.97
2019-03-19T12:36:33.443Z,2.10
2019-03-19T12:38:59.999Z,1.60
2019-03-19T12:41:26.802Z,2.20
2019-03-19T12:43:53.394Z,2.10
2019-03-19T12:46:20.286Z,1.90
2019-03-19T12:48:46.855Z,2.70
2019-03-19T12:51:13.207Z,3.07
2019-03-19T12:53:39.834Z,3.00
2019-03-19T12:56:06.252Z,2.20
2019-03-19T12:58:32.727Z,2.20
2019-03-19T13:00:59.304Z,3.73
2019-03-19T13:03:25.844Z,2.40
2019-03-19T13:05:52.577Z,2.53
2019-03-19T13:08:20.463Z,2.73
2019-03-19T13:10:47.388Z,2.60
2019-03-19T13:13:13.868Z,1.87
2019-03-19T13:15:40.399Z,2.13
2019-03-19T13:18:07.030Z,2.00
2019-03-19T13:20:33.704Z,2.23
2019-03-19T13:23:00.162Z,2.20
2019-03-19T13:25:26.636Z,2.60
2019-03-19T13:27:53.237Z,2.77
2019-03-19T13:30:24.693Z,2.90
2019-03-19T13:32:51.160Z,2.43
2019-03-19T13:35:17.729Z,2.00
2019-03-19T13:37:44.283Z,2.20
2019-03-19T13:40:15.252Z,2.93
2019-03-19T13:42:41.829Z,2.23
2019-03-19T13:45:13.977Z,2.10
2019-03-19T13:47:40.630Z,3.17
2019-03-19T13:50:09.877Z,2.70
2019-03-19T13:52:36.540Z,2.23
2019-03-19T13:55:06.201Z,2.67
2019-03-19T13:57:32.680Z,2.10
2019-03-19T13:59:59.501Z,2.47
2019-03-19T14:02:26.176Z,2.73
2019-03-19T14:04:52.983Z,2.97
2019-03-19T14:07:19.928Z,2.70
2019-03-19T14:09:46.367Z,2.67
2019-03-19T14:12:12.742Z,2.93
2019-03-19T14:14:39.087Z,2.23
2019-03-19T14:17:06.651Z,2.30
2019-03-19T14:19:33.634Z,2.10
2019-03-19T14:22:00.194Z,3.33
2019-03-19T14:24:27.010Z,3.30
2019-03-19T14:26:53.581Z,2.60
2019-03-19T14:29:20.595Z,2.63
2019-03-19T14:31:47.052Z,3.17
2019-03-19T14:34:13.620Z,2.93
2019-03-19T14:36:40.184Z,3.17
2019-03-19T14:39:07.566Z,2.43
2019-03-19T14:41:34.417Z,3.10
2019-03-19T14:44:01.351Z,3.00
2019-03-19T14:46:27.902Z,2.60
2019-03-19T14:48:54.731Z,3.90
2019-03-19T14:51:21.569Z,3.10
2019-03-19T14:53:48.411Z,3.00
2019-03-19T14:56:15.155Z,3.37
2019-03-19T14:58:41.886Z,3.50
2019-03-19T15:01:18.739Z,2.73
2019-03-19T15:03:36.535Z,3.30
2019-03-19T15:06:03.554Z,2.73
2019-03-19T15:08:30.000Z,3.73
2019-03-19T15:10:56.827Z,3.80
2019-03-19T15:13:23.415Z,2.90
2019-03-19T15:15:50.067Z,3.80
2019-03-19T15:18:16.436Z,2.70
2019-03-19T15:20:43.119Z,3.50
2019-03-19T15:23:09.696Z,3.70
2019-03-19T15:25:36.247Z,3.50
2019-03-19T15:28:03.200Z,3.60
2019-03-19T15:30:29.794Z,3.33
2019-03-19T15:32:56.262Z,3.20
2019-03-19T15:35:22.739Z,2.90
2019-03-19T15:37:49.094Z,3.30
2019-03-19T15:40:16.671Z,4.00
2019-03-19T15:42:43.393Z,4.00
2019-03-19T15:45:25.196Z,3.92
2019-03-19T15:47:51.785Z,4.67
2019-03-19T15:50:18.228Z,3.63
2019-03-19T15:52:44.850Z,2.83
2019-03-19T15:55:15.259Z,3.77
2019-03-19T15:57:41.941Z,3.43
2019-03-19T16:00:15.884Z,3.98
2019-03-19T16:02:42.857Z,3.50
2019-03-19T16:05:11.346Z,3.67
2019-03-19T16:07:37.955Z,4.50
2019-03-19T16:10:07.231Z,4.37
2019-03-19T16:12:33.688Z,3.67
2019-03-19T16:15:00.401Z,4.10
2019-03-19T16:17:26.836Z,3.77
2019-03-19T16:19:53.530Z,3.98
2019-03-19T16:22:20.266Z,4.05
2019-03-19T16:24:46.735Z,3.83
2019-03-19T16:27:13.202Z,5.83
2019-03-19T16:29:39.700Z,4.92
2019-03-19T16:32:06.268Z,4.53
2019-03-19T16:34:32.863Z,5.30
2019-03-19T16:36:59.305Z,8.38
2019-03-19T16:39:25.940Z,7.50
2019-03-19T16:41:52.605Z,4.30
2019-03-19T16:44:19.121Z,4.00
2019-03-19T16:46:45.935Z,4.65
2019-03-19T16:49:12.873Z,5.45
2019-03-19T16:51:39.236Z,4.92
2019-03-19T16:54:06.155Z,5.05
2019-03-19T16:56:32.733Z,4.92
2019-03-19T16:58:59.307Z,4.35
2019-03-19T17:01:26.272Z,5.00
2019-03-19T17:03:52.733Z,3.80
2019-03-19T17:06:19.324Z,4.95
2019-03-19T17:08:45.789Z,5.45
2019-03-19T17:11:12.268Z,4.58
2019-03-19T17:13:38.932Z,5.08
2019-03-19T17:16:05.604Z,4.97
2019-03-19T17:18:32.657Z,4.72
2019-03-19T17:20:59.228Z,5.37
2019-03-19T17:23:26.127Z,4.20
2019-03-19T17:25:52.967Z,5.37
2019-03-19T17:28:22.758Z,3.98
2019-03-19T17:30:47.787Z,4.62
2019-03-19T17:33:14.185Z,5.65
2019-03-19T17:35:40.956Z,4.30
2019-03-19T17:38:08.983Z,4.40
2019-03-19T17:40:41.245Z,4.50
2019-03-19T17:43:04.228Z,4.65
2019-03-19T17:45:30.885Z,4.70
2019-03-19T17:47:57.838Z,4.65
2019-03-19T17:50:29.479Z,4.50
2019-03-19T17:52:56.052Z,4.35
2019-03-19T17:55:22.711Z,4.67
2019-03-19T17:57:49.504Z,5.28
2019-03-19T18:00:28.291Z,5.70
2019-03-19T18:02:54.773Z,4.92
2019-03-19T18:05:21.433Z,4.30
2019-03-19T18:07:48.651Z,4.97
2019-03-19T18:10:15.195Z,3.90
2019-03-19T18:12:42.141Z,4.95
2019-03-19T18:15:13.787Z,4.70
2019-03-19T18:17:40.336Z,3.80
2019-03-19T18:20:13.313Z,4.58
2019-03-19T18:22:39.778Z,4.50
2019-03-19T18:25:08.939Z,4.85
2019-03-19T18:27:35.511Z,5.28
2019-03-19T18:30:05.507Z,5.17
2019-03-19T18:32:35.376Z,5.42
2019-03-19T18:35:00.368Z,5.20
2019-03-19T18:37:27.252Z,6.90
2019-03-19T18:39:54.093Z,5.30
2019-03-19T18:42:20.846Z,6.00
2019-03-19T18:44:47.308Z,6.78
2019-03-19T18:47:13.879Z,6.35
2019-03-19T18:49:40.344Z,6.25
2019-03-19T18:52:06.817Z,7.47
2019-03-19T18:54:33.375Z,7.08
2019-03-19T18:56:59.946Z,6.25
2019-03-19T18:59:26.492Z,5.22
2019-03-19T19:01:53.344Z,5.12
2019-03-19T19:04:20.277Z,6.47
2019-03-19T19:06:46.759Z,5.72
2019-03-19T19:09:13.422Z,6.05
2019-03-19T19:11:39.980Z,6.47
2019-03-19T19:14:06.356Z,5.25
2019-03-19T19:16:32.905Z,6.83
2019-03-19T19:18:59.375Z,5.53
2019-03-19T19:21:25.935Z,5.87
2019-03-19T19:23:52.398Z,6.30
2019-03-19T19:26:18.964Z,5.58
2019-03-19T19:28:45.888Z,7.42
2019-03-19T19:31:12.457Z,5.78
2019-03-19T19:33:39.216Z,5.50
2019-03-19T19:36:05.954Z,5.35
2019-03-19T19:38:32.453Z,5.53
2019-03-19T19:40:59.006Z,5.95
2019-03-19T19:43:25.480Z,5.55
2019-03-19T19:45:51.952Z,6.33
2019-03-19T19:48:18.557Z,6.37
2019-03-19T19:50:44.988Z,5.65
2019-03-19T19:53:11.567Z,6.08
2019-03-19T19:55:38.011Z,6.90
2019-03-19T19:58:04.863Z,7.20
2019-03-19T20:00:31.725Z,7.50
2019-03-19T20:02:58.235Z,6.60
2019-03-19T20:05:24.892Z,7.40
2019-03-19T20:07:51.383Z,7.20
2019-03-19T20:10:19.853Z,6.40
2019-03-19T20:12:46.780Z,7.95
2019-03-19T20:15:13.465Z,7.70
2019-03-19T20:17:39.920Z,7.50
2019-03-19T20:20:24.530Z,6.58
2019-03-19T20:22:51.180Z,7.62
2019-03-19T20:25:18.173Z,7.45
2019-03-19T20:27:44.873Z,7.33
2019-03-19T20:30:14.428Z,7.30
2019-03-19T20:32:40.971Z,7.83
2019-03-19T20:35:09.871Z,6.05
2019-03-19T20:37:36.698Z,7.15
2019-03-19T20:40:06.668Z,6.45
2019-03-19T20:42:33.300Z,6.12
2019-03-19T20:44:59.860Z,7.00
2019-03-19T20:47:26.441Z,7.95
2019-03-19T20:49:53.164Z,7.65
2019-03-19T20:52:19.663Z,7.45
2019-03-19T20:54:46.268Z,8.95
2019-03-19T20:57:12.852Z,7.62
2019-03-19T20:59:39.821Z,7.60
2019-03-19T21:02:06.303Z,7.75
2019-03-19T21:04:33.199Z,7.78
2019-03-19T21:07:00.092Z,9.00
2019-03-19T21:09:26.588Z,7.70
2019-03-19T21:11:53.457Z,8.60
2019-03-19T21:14:20.440Z,10.15
2019-03-19T21:16:46.913Z,9.25
2019-03-19T21:19:13.393Z,8.70
2019-03-19T21:21:39.949Z,8.05
2019-03-19T21:24:06.690Z,7.65
2019-03-19T21:26:33.165Z,9.53
2019-03-19T21:28:59.621Z,6.65
2019-03-19T21:31:26.423Z,9.00
2019-03-19T21:33:53.165Z,8.53
2019-03-19T21:36:19.745Z,9.45
2019-03-19T21:38:46.639Z,8.05
2019-03-19T21:41:13.036Z,9.08
2019-03-19T21:43:39.828Z,7.90
2019-03-19T21:46:06.367Z,9.05
2019-03-19T21:48:32.822Z,9.23
2019-03-19T21:50:59.313Z,8.80
2019-03-19T21:53:25.796Z,8.88
2019-03-19T21:55:52.273Z,10.15
2019-03-19T21:58:18.829Z,8.88
2019-03-19T22:00:45.728Z,9.88
2019-03-19T22:03:12.211Z,9.93
2019-03-19T22:05:38.747Z,10.30
2019-03-19T22:08:05.590Z,10.20
2019-03-19T22:10:32.165Z,10.25
2019-03-19T22:12:58.874Z,9.85
2019-03-19T22:15:25.622Z,9.68
2019-03-19T22:18:12.226Z,11.03
2019-03-19T22:20:58.776Z,11.45
2019-03-19T22:23:25.677Z,10.50
2019-03-19T22:25:52.403Z,9.68
2019-03-19T22:28:18.898Z,9.95
2019-03-19T22:30:45.372Z,9.05
2019-03-19T22:33:11.921Z,11.03
2019-03-19T22:35:38.409Z,9.90
2019-03-19T22:38:04.862Z,9.63
2019-03-19T22:40:31.424Z,9.45
2019-03-19T22:42:58.255Z,10.03
2019-03-19T22:45:24.852Z,13.58
2019-03-19T22:47:51.427Z,12.75
2019-03-19T22:50:18.170Z,11.65
2019-03-19T22:52:45.326Z,10.53
2019-03-19T22:55:13.292Z,10.00
2019-03-19T22:57:39.963Z,9.93
2019-03-19T23:00:17.219Z,9.08
2019-03-19T23:02:43.792Z,9.83
2019-03-19T23:05:12.735Z,9.73
2019-03-19T23:07:39.305Z,13.40
2019-03-19T23:10:06.187Z,10.78
2019-03-19T23:12:32.937Z,11.73
2019-03-19T23:14:59.521Z,9.15
2019-03-19T23:17:26.011Z,10.72
2019-03-19T23:19:52.450Z,9.85
2019-03-19T23:22:18.892Z,12.05
2019-03-19T23:24:45.754Z,11.43
2019-03-19T23:27:12.195Z,9.45
2019-03-19T23:29:38.932Z,11.60
2019-03-19T23:32:05.376Z,8.90
2019-03-19T23:34:38.545Z,11.75
2019-03-19T23:37:00.121Z,14.83
2019-03-19T23:39:26.912Z,10.65
2019-03-19T23:41:53.348Z,9.68
2019-03-19T23:44:20.084Z,11.48
2019-03-19T23:46:46.606Z,11.30
2019-03-19T23:49:13.008Z,11.88
2019-03-19T23:51:39.481Z,12.53
2019-03-19T23:54:06.020Z,11.88
2019-03-19T23:56:32.603Z,12.55
2019-03-19T23:58:59.405Z,15.32
